createdAt,value
2023-02-21T00:00:42.067Z,6.30
2023-02-21T00:02:33.646Z,6.30
2023-02-21T00:04:24.303Z,6.40
2023-02-21T00:06:14.868Z,6.40
2023-02-21T00:08:05.089Z,6.40
2023-02-21T00:09:57.716Z,6.40
2023-02-21T00:11:48.261Z,6.30
2023-02-21T00:13:38.643Z,6.20
2023-02-21T00:15:30.025Z,6.20
2023-02-21T00:17:20.499Z,6.20
2023-02-21T00:19:11.984Z,6.20
2023-02-21T00:21:02.505Z,6.10
2023-02-21T00:22:53.046Z,6.10
2023-02-21T00:24:43.570Z,6.10
2023-02-21T00:26:36.344Z,6.20
2023-02-21T00:28:27.132Z,6.10
2023-02-21T00:30:17.798Z,6.10
2023-02-21T00:32:08.670Z,6.00
2023-02-21T00:33:59.360Z,5.90
2023-02-21T00:35:50.950Z,5.90
2023-02-21T00:37:44.062Z,5.90
2023-02-21T00:39:34.616Z,5.80
2023-02-21T00:41:25.537Z,5.70
2023-02-21T00:43:16.525Z,5.70
2023-02-21T00:45:07.163Z,5.60
2023-02-21T00:46:57.632Z,5.60
2023-02-21T00:48:48.745Z,5.60
2023-02-21T00:50:39.365Z,5.50
2023-02-21T00:52:31.573Z,5.50
2023-02-21T00:54:22.385Z,5.50
2023-02-21T00:56:12.734Z,5.40
2023-02-21T00:58:04.141Z,5.00
2023-02-21T00:59:54.742Z,5.30
2023-02-21T01:01:45.339Z,5.40
2023-02-21T01:03:35.644Z,5.30
2023-02-21T01:05:26.644Z,5.30
2023-02-21T01:07:17.242Z,5.60
2023-02-21T01:09:09.045Z,5.30
2023-02-21T01:10:59.433Z,5.40
2023-02-21T01:12:49.859Z,5.40
2023-02-21T01:14:40.258Z,5.30
2023-02-21T01:16:30.567Z,5.30
2023-02-21T01:18:21.070Z,5.30
2023-02-21T01:20:11.486Z,5.30
2023-02-21T01:22:02.078Z,5.30
2023-02-21T01:23:52.692Z,5.30
2023-02-21T01:25:44.308Z,5.30
2023-02-21T01:27:34.950Z,5.20
2023-02-21T01:29:25.496Z,5.20
2023-02-21T01:31:16.829Z,5.20
2023-02-21T01:33:07.550Z,5.10
2023-02-21T01:34:58.092Z,5.00
2023-02-21T01:36:48.410Z,5.00
2023-02-21T01:38:38.917Z,5.00
2023-02-21T01:40:33.452Z,5.00
2023-02-21T01:42:27.761Z,5.00
2023-02-21T01:44:19.041Z,5.00
2023-02-21T01:46:12.497Z,5.00
2023-02-21T01:48:03.581Z,5.00
2023-02-21T01:49:56.798Z,5.00
2023-02-21T01:51:53.038Z,5.10
2023-02-21T01:53:44.837Z,5.00
2023-02-21T01:55:36.066Z,5.00
2023-02-21T01:57:27.920Z,5.70
2023-02-21T01:59:21.007Z,5.00
2023-02-21T02:01:12.628Z,5.00
2023-02-21T02:03:10.567Z,5.00
2023-02-21T02:05:02.267Z,4.90
2023-02-21T02:06:52.832Z,4.90
2023-02-21T02:08:47.297Z,4.80
2023-02-21T02:10:38.228Z,4.90
2023-02-21T02:12:33.123Z,4.80
2023-02-21T02:14:24.293Z,4.80
2023-02-21T02:16:02.717Z,4.80
2023-02-21T02:17:45.999Z,4.80
2023-02-21T02:19:42.137Z,4.80
2023-02-21T02:21:42.531Z,4.30
2023-02-21T02:23:37.847Z,4.80
2023-02-21T02:25:54.637Z,4.80
2023-02-21T02:27:44.629Z,4.70
2023-02-21T02:29:38.632Z,4.70
2023-02-21T02:31:41.355Z,4.70
2023-02-21T02:33:50.286Z,4.60
2023-02-21T02:35:29.464Z,4.60
2023-02-21T02:37:11.549Z,4.40
2023-02-21T02:38:53.285Z,4.60
2023-02-21T02:40:33.454Z,4.50
2023-02-21T02:42:19.398Z,4.50
2023-02-21T02:43:58.964Z,4.50
2023-02-21T02:45:37.719Z,4.40
2023-02-21T02:47:16.630Z,4.40
2023-02-21T02:48:54.116Z,4.40
2023-02-21T02:50:30.128Z,4.40
2023-02-21T02:52:05.418Z,4.40
2023-02-21T02:53:38.565Z,4.40
2023-02-21T02:55:31.937Z,4.40
2023-02-21T02:57:10.676Z,4.30
2023-02-21T02:58:49.341Z,4.30
2023-02-21T03:00:23.161Z,4.30
2023-02-21T03:02:12.802Z,4.10
2023-02-21T03:04:07.467Z,4.20
2023-02-21T03:05:52.120Z,4.10
2023-02-21T03:07:36.525Z,4.10
2023-02-21T03:09:14.646Z,4.00
2023-02-21T03:10:52.753Z,4.00
2023-02-21T03:12:37.242Z,4.00
2023-02-21T03:14:17.498Z,3.90
2023-02-21T03:15:56.877Z,3.90
2023-02-21T03:17:33.731Z,3.90
2023-02-21T03:19:10.233Z,3.70
2023-02-21T03:20:45.671Z,4.00
2023-02-21T03:22:21.907Z,3.40
2023-02-21T03:23:58.094Z,4.00
2023-02-21T03:25:33.550Z,4.00
2023-02-21T03:27:08.262Z,4.00
2023-02-21T03:28:42.118Z,4.00
2023-02-21T03:30:16.036Z,4.00
2023-02-21T03:31:56.097Z,4.00
2023-02-21T03:33:29.428Z,4.00
2023-02-21T03:35:02.516Z,4.00
2023-02-21T03:36:37.085Z,2.90
2023-02-21T03:38:11.798Z,4.10
2023-02-21T03:39:44.754Z,4.10
2023-02-21T03:41:17.730Z,4.10
2023-02-21T03:42:50.915Z,4.20
2023-02-21T03:44:23.849Z,4.30
2023-02-21T03:45:56.882Z,4.30
2023-02-21T03:47:29.786Z,4.40
2023-02-21T03:49:02.650Z,4.60
2023-02-21T03:50:35.633Z,4.70
2023-02-21T03:52:12.605Z,4.80
2023-02-21T03:53:45.519Z,4.90
2023-02-21T03:55:18.840Z,4.90
2023-02-21T03:56:51.782Z,5.40
2023-02-21T03:58:24.722Z,6.40
2023-02-21T03:59:57.717Z,4.50
2023-02-21T04:01:29.760Z,5.20
2023-02-21T04:03:02.675Z,5.20
2023-02-21T04:04:35.844Z,5.00
2023-02-21T04:06:08.832Z,5.20
2023-02-21T04:07:43.174Z,5.30
2023-02-21T04:09:16.463Z,5.30
2023-02-21T04:10:52.474Z,4.50
2023-02-21T04:12:26.079Z,5.30
2023-02-21T04:13:59.041Z,5.40
2023-02-21T04:15:31.933Z,5.40
2023-02-21T04:17:04.892Z,5.30
2023-02-21T04:18:37.929Z,5.40
2023-02-21T04:20:10.775Z,5.40
2023-02-21T04:21:43.756Z,5.40
2023-02-21T04:23:20.029Z,5.50
2023-02-21T04:24:53.110Z,5.50
2023-02-21T04:26:26.082Z,5.50
2023-02-21T04:27:59.035Z,5.50
2023-02-21T04:29:31.964Z,5.50
2023-02-21T04:31:04.990Z,6.80
2023-02-21T04:32:37.958Z,5.60
2023-02-21T04:34:12.343Z,5.70
2023-02-21T04:35:45.475Z,5.70
2023-02-21T04:37:18.463Z,5.70
2023-02-21T04:38:52.774Z,5.70
2023-02-21T04:40:25.736Z,5.70
2023-02-21T04:41:58.640Z,5.70
2023-02-21T04:43:30.687Z,6.60
2023-02-21T04:45:04.146Z,5.10
2023-02-21T04:46:37.161Z,4.50
2023-02-21T04:48:10.188Z,5.90
2023-02-21T04:49:42.190Z,5.90
2023-02-21T04:51:16.910Z,5.80
2023-02-21T04:52:50.417Z,5.90
2023-02-21T04:54:24.634Z,6.00
2023-02-21T04:55:58.640Z,6.00
2023-02-21T04:57:31.577Z,5.40
2023-02-21T04:59:04.654Z,6.00
2023-02-21T05:00:37.584Z,6.10
2023-02-21T05:02:11.034Z,6.10
2023-02-21T05:03:43.799Z,6.10
2023-02-21T05:05:16.901Z,6.10
2023-02-21T05:06:49.899Z,6.10
2023-02-21T05:08:26.778Z,5.70
2023-02-21T05:10:02.250Z,6.10
2023-02-21T05:11:35.768Z,6.10
2023-02-21T05:13:08.683Z,6.10
2023-02-21T05:14:41.942Z,6.10
2023-02-21T05:16:14.253Z,6.20
2023-02-21T05:17:47.702Z,6.20
2023-02-21T05:19:27.453Z,6.20
2023-02-21T05:21:01.764Z,5.80
2023-02-21T05:22:39.950Z,6.20
2023-02-21T05:24:12.858Z,6.30
2023-02-21T05:25:46.145Z,6.30
2023-02-21T05:27:20.554Z,6.30
2023-02-21T05:28:54.768Z,6.40
2023-02-21T05:30:27.895Z,6.40
2023-02-21T05:32:00.972Z,6.40
2023-02-21T05:33:33.359Z,6.40
2023-02-21T05:35:07.759Z,6.30
2023-02-21T05:36:41.253Z,6.40
2023-02-21T05:38:14.209Z,6.40
2023-02-21T05:39:47.178Z,6.40
2023-02-21T05:41:21.601Z,6.40
2023-02-21T05:42:54.558Z,6.00
2023-02-21T05:44:27.507Z,6.40
2023-02-21T05:45:59.533Z,6.30
2023-02-21T05:47:34.104Z,6.40
2023-02-21T05:49:07.001Z,7.20
2023-02-21T05:50:40.690Z,6.40
2023-02-21T05:52:15.946Z,6.40
2023-02-21T05:53:49.398Z,6.40
2023-02-21T05:55:22.384Z,6.50
2023-02-21T05:56:56.642Z,5.80
2023-02-21T05:58:28.541Z,6.60
2023-02-21T06:00:01.422Z,6.50
2023-02-21T06:01:34.471Z,6.50
2023-02-21T06:03:08.773Z,8.20
2023-02-21T06:04:41.756Z,8.50
2023-02-21T06:06:16.341Z,6.60
2023-02-21T06:07:50.128Z,6.60
2023-02-21T06:09:23.033Z,6.60
2023-02-21T06:10:55.998Z,7.00
2023-02-21T06:12:30.416Z,6.60
2023-02-21T06:14:05.940Z,6.60
2023-02-21T06:15:38.868Z,6.80
2023-02-21T06:17:11.845Z,6.60
2023-02-21T06:18:44.730Z,6.50
2023-02-21T06:20:17.721Z,6.50
2023-02-21T06:21:50.672Z,6.40
2023-02-21T06:23:23.629Z,6.40
2023-02-21T06:24:56.548Z,6.40
2023-02-21T06:26:29.652Z,6.50
2023-02-21T06:28:04.035Z,8.30
2023-02-21T06:29:36.946Z,7.20
2023-02-21T06:31:09.940Z,6.50
2023-02-21T06:32:43.208Z,6.60
2023-02-21T06:35:06.244Z,6.60
2023-02-21T06:36:39.219Z,6.60
2023-02-21T06:38:12.367Z,6.60
2023-02-21T06:39:45.307Z,6.70
2023-02-21T06:41:20.061Z,6.70
2023-02-21T06:42:52.881Z,6.80
2023-02-21T06:44:27.145Z,6.90
2023-02-21T06:46:00.158Z,7.20
2023-02-21T06:47:33.165Z,6.90
2023-02-21T06:49:06.147Z,6.90
2023-02-21T06:50:39.095Z,7.00
2023-02-21T06:52:12.568Z,7.10
2023-02-21T06:53:46.158Z,7.10
2023-02-21T06:55:24.296Z,7.10
2023-02-21T06:56:58.988Z,7.20
2023-02-21T06:58:31.926Z,7.20
2023-02-21T07:00:07.669Z,7.80
2023-02-21T07:01:40.622Z,7.30
2023-02-21T07:03:13.519Z,7.90
2023-02-21T07:04:46.787Z,7.30
2023-02-21T07:06:19.757Z,7.30
2023-02-21T07:07:52.629Z,7.90
2023-02-21T07:09:25.671Z,7.40
2023-02-21T07:10:58.573Z,7.50
2023-02-21T07:12:31.445Z,7.60
2023-02-21T07:14:04.567Z,7.40
2023-02-21T07:15:38.807Z,7.60
2023-02-21T07:17:11.719Z,7.40
2023-02-21T07:18:44.824Z,7.60
2023-02-21T07:20:17.998Z,7.60
2023-02-21T07:21:50.891Z,7.70
2023-02-21T07:23:23.850Z,7.70
2023-02-21T07:24:57.080Z,7.80
2023-02-21T07:26:29.971Z,7.80
2023-02-21T07:28:04.253Z,7.80
2023-02-21T07:29:37.167Z,7.90
2023-02-21T07:31:12.111Z,8.00
2023-02-21T07:32:48.541Z,8.00
2023-02-21T07:34:22.933Z,8.10
2023-02-21T07:35:56.410Z,8.60
2023-02-21T07:37:29.314Z,8.80
2023-02-21T07:39:02.185Z,8.30
2023-02-21T07:40:35.120Z,8.30
2023-02-21T07:42:08.960Z,8.40
2023-02-21T07:43:41.790Z,8.40
2023-02-21T07:45:16.401Z,8.50
2023-02-21T07:46:50.735Z,8.60
2023-02-21T07:48:24.205Z,8.60
2023-02-21T07:49:57.038Z,8.70
2023-02-21T07:51:30.902Z,8.70
2023-02-21T07:53:03.791Z,8.80
2023-02-21T07:54:36.806Z,8.80
2023-02-21T07:56:09.886Z,9.00
2023-02-21T07:57:42.769Z,9.10
2023-02-21T07:59:15.991Z,9.10
2023-02-21T08:00:48.856Z,9.10
2023-02-21T08:02:23.138Z,10.20
2023-02-21T08:03:56.064Z,9.20
2023-02-21T08:05:29.259Z,9.10
2023-02-21T08:07:03.632Z,9.10
2023-02-21T08:08:36.662Z,8.90
2023-02-21T08:10:10.145Z,8.80
2023-02-21T08:11:43.105Z,8.70
2023-02-21T08:13:16.024Z,8.70
2023-02-21T08:14:48.970Z,8.60
2023-02-21T08:16:22.040Z,8.50
2023-02-21T08:17:56.448Z,8.50
2023-02-21T08:19:29.384Z,8.50
2023-02-21T08:21:02.437Z,8.40
2023-02-21T08:22:35.436Z,8.40
2023-02-21T08:24:08.463Z,8.40
2023-02-21T08:25:41.463Z,8.40
2023-02-21T08:27:14.399Z,8.40
2023-02-21T08:28:47.324Z,8.40
2023-02-21T08:30:20.837Z,8.40
2023-02-21T08:31:53.821Z,8.40
2023-02-21T08:33:30.072Z,8.50
2023-02-21T08:35:05.818Z,8.50
2023-02-21T08:36:40.864Z,8.60
2023-02-21T08:38:13.945Z,8.80
2023-02-21T08:39:47.365Z,8.90
2023-02-21T08:41:20.157Z,9.00
2023-02-21T08:42:54.745Z,9.00
2023-02-21T08:44:27.841Z,9.20
2023-02-21T08:46:01.462Z,9.40
2023-02-21T08:47:36.306Z,9.60
2023-02-21T08:49:10.947Z,9.90
2023-02-21T08:50:44.248Z,10.10
2023-02-21T08:52:19.024Z,10.40
2023-02-21T08:53:52.003Z,10.60
2023-02-21T08:55:25.488Z,10.80
2023-02-21T08:56:58.695Z,11.00
2023-02-21T08:58:31.697Z,11.30
2023-02-21T09:00:07.074Z,11.50
2023-02-21T09:01:40.126Z,11.70
2023-02-21T09:03:13.042Z,11.90
2023-02-21T09:04:47.964Z,12.10
2023-02-21T09:06:20.877Z,12.10
2023-02-21T09:07:55.465Z,12.20
2023-02-21T09:09:28.612Z,12.30
2023-02-21T09:11:01.563Z,12.30
2023-02-21T09:12:34.483Z,12.30
2023-02-21T09:14:07.423Z,12.20
2023-02-21T09:15:40.432Z,12.20
2023-02-21T09:17:15.119Z,12.10
2023-02-21T09:18:55.232Z,12.10
2023-02-21T09:20:29.470Z,12.20
2023-02-21T09:22:04.237Z,12.30
2023-02-21T09:23:37.166Z,12.20
2023-02-21T09:25:13.017Z,12.20
2023-02-21T09:26:47.142Z,12.20
2023-02-21T09:28:20.888Z,12.00
2023-02-21T09:29:53.804Z,12.00
2023-02-21T09:31:26.866Z,12.00
2023-02-21T09:32:59.818Z,12.00
2023-02-21T09:34:32.766Z,12.10
2023-02-21T09:36:08.076Z,11.20
2023-02-21T09:37:41.337Z,12.10
2023-02-21T09:39:14.987Z,12.10
2023-02-21T09:40:51.570Z,12.10
2023-02-21T09:42:30.374Z,12.20
2023-02-21T09:44:05.227Z,12.20
2023-02-21T09:45:39.103Z,12.20
2023-02-21T09:47:18.915Z,12.30
2023-02-21T09:48:52.836Z,12.50
2023-02-21T09:50:31.093Z,12.50
2023-02-21T09:52:07.135Z,12.60
2023-02-21T09:53:43.806Z,12.50
2023-02-21T09:55:30.502Z,12.60
2023-02-21T09:57:07.244Z,12.80
2023-02-21T09:58:43.281Z,12.90
2023-02-21T10:00:22.083Z,12.90
2023-02-21T10:02:25.880Z,13.00
2023-02-21T10:04:09.114Z,13.10
2023-02-21T10:05:51.121Z,13.20
2023-02-21T10:07:36.593Z,13.30
2023-02-21T10:09:21.102Z,13.30
2023-02-21T10:10:57.924Z,13.40
2023-02-21T10:12:35.324Z,13.50
2023-02-21T10:14:19.920Z,13.60
2023-02-21T10:16:03.159Z,13.70
2023-02-21T10:17:40.660Z,13.80
2023-02-21T10:19:19.642Z,13.80
2023-02-21T10:20:57.713Z,13.80
2023-02-21T10:22:36.158Z,13.80
2023-02-21T10:24:14.018Z,13.80
2023-02-21T10:25:48.227Z,13.90
2023-02-21T10:27:23.087Z,13.90
2023-02-21T10:28:57.867Z,13.90
2023-02-21T10:30:35.308Z,13.90
2023-02-21T10:32:09.791Z,14.00
2023-02-21T10:33:42.780Z,14.10
2023-02-21T10:35:15.857Z,14.20
2023-02-21T10:36:50.488Z,14.30
2023-02-21T10:38:26.941Z,14.50
2023-02-21T10:40:05.505Z,14.50
2023-02-21T10:41:41.551Z,14.50
2023-02-21T10:43:17.875Z,14.30
2023-02-21T10:44:51.635Z,14.20
2023-02-21T10:46:29.066Z,14.20
2023-02-21T10:48:04.796Z,14.20
2023-02-21T10:49:46.822Z,14.30
2023-02-21T10:51:31.651Z,14.40
2023-02-21T10:53:04.971Z,14.70
2023-02-21T10:54:39.503Z,14.80
2023-02-21T10:56:28.100Z,14.80
2023-02-21T10:58:08.642Z,14.80
2023-02-21T10:59:43.894Z,14.80
2023-02-21T11:01:21.283Z,14.80
2023-02-21T11:02:57.933Z,14.70
2023-02-21T11:04:34.577Z,14.80
2023-02-21T11:06:08.150Z,15.00
2023-02-21T11:07:42.714Z,15.10
2023-02-21T11:09:34.991Z,15.20
2023-02-21T11:11:09.616Z,15.20
2023-02-21T11:12:42.575Z,15.30
2023-02-21T11:14:23.748Z,15.30
2023-02-21T11:16:11.362Z,14.90
2023-02-21T11:17:45.627Z,14.90
2023-02-21T11:19:18.536Z,15.00
2023-02-21T11:20:53.630Z,14.90
2023-02-21T11:22:38.870Z,15.00
2023-02-21T11:24:13.216Z,15.00
2023-02-21T11:25:47.155Z,15.20
2023-02-21T11:27:21.866Z,15.30
2023-02-21T11:28:54.941Z,15.30
2023-02-21T11:30:28.042Z,15.20
2023-02-21T11:32:12.691Z,15.20
2023-02-21T11:33:53.568Z,15.20
2023-02-21T11:35:28.918Z,15.20
2023-02-21T11:37:04.570Z,15.30
2023-02-21T11:38:41.438Z,15.30
2023-02-21T11:40:24.292Z,15.30
2023-02-21T11:41:58.462Z,15.40
2023-02-21T11:43:33.627Z,15.50
2023-02-21T11:45:15.446Z,15.50
2023-02-21T11:46:50.393Z,15.60
2023-02-21T11:48:31.048Z,15.70
2023-02-21T11:50:08.541Z,15.70
2023-02-21T11:51:47.469Z,15.50
2023-02-21T11:53:24.323Z,15.30
2023-02-21T11:54:57.283Z,15.20
2023-02-21T11:56:40.798Z,15.00
2023-02-21T11:58:23.309Z,14.90
2023-02-21T12:00:08.240Z,14.80
2023-02-21T12:01:47.557Z,14.70
2023-02-21T12:03:40.681Z,14.50
2023-02-21T12:05:32.958Z,14.40
2023-02-21T12:07:15.615Z,14.20
2023-02-21T12:08:52.793Z,14.20
2023-02-21T12:10:39.981Z,14.20
2023-02-21T12:12:25.635Z,14.10
2023-02-21T12:14:17.176Z,14.10
2023-02-21T12:16:04.181Z,14.10
2023-02-21T12:17:52.127Z,14.00
2023-02-21T12:19:47.757Z,14.00
2023-02-21T12:21:36.419Z,14.00
2023-02-21T12:23:16.862Z,14.00
2023-02-21T12:25:02.014Z,14.00
2023-02-21T12:26:49.612Z,14.10
2023-02-21T12:28:28.290Z,14.10
2023-02-21T12:30:18.574Z,14.20
2023-02-21T12:32:07.504Z,14.20
2023-02-21T12:33:46.774Z,14.20
2023-02-21T12:36:05.823Z,14.20
2023-02-21T12:37:46.967Z,14.30
2023-02-21T12:39:36.230Z,14.50
2023-02-21T12:41:26.030Z,14.70
2023-02-21T12:43:23.664Z,14.70
2023-02-21T12:45:08.422Z,14.70
2023-02-21T12:46:46.235Z,14.80
2023-02-21T12:48:26.932Z,14.80
2023-02-21T12:50:15.931Z,14.90
2023-02-21T12:51:53.815Z,15.00
2023-02-21T12:53:33.329Z,15.20
2023-02-21T12:55:14.521Z,15.00
2023-02-21T12:56:54.181Z,14.90
2023-02-21T12:58:31.594Z,14.70
2023-02-21T13:00:17.446Z,14.60
2023-02-21T13:01:54.594Z,14.50
2023-02-21T13:03:53.760Z,14.40
2023-02-21T13:05:40.838Z,14.50
2023-02-21T13:07:25.248Z,14.70
2023-02-21T13:09:10.594Z,14.90
2023-02-21T13:10:53.338Z,15.00
2023-02-21T13:12:31.579Z,15.20
2023-02-21T13:14:10.771Z,15.20
2023-02-21T13:15:47.661Z,15.30
2023-02-21T13:17:21.167Z,15.30
2023-02-21T13:19:02.032Z,15.30
2023-02-21T13:20:39.954Z,15.20
2023-02-21T13:23:07.955Z,15.10
2023-02-21T13:24:49.769Z,15.10
2023-02-21T13:26:41.788Z,15.20
2023-02-21T13:28:19.639Z,15.30
2023-02-21T13:29:52.856Z,15.30
2023-02-21T13:31:27.944Z,15.40
2023-02-21T13:33:02.435Z,15.40
2023-02-21T13:34:43.095Z,15.50
2023-02-21T13:36:23.578Z,15.60
2023-02-21T13:37:57.614Z,15.70
2023-02-21T13:39:37.493Z,15.80
2023-02-21T13:41:16.847Z,15.90
2023-02-21T13:42:59.872Z,16.10
2023-02-21T13:44:35.531Z,16.10
2023-02-21T13:46:56.237Z,16.00
2023-02-21T13:48:30.532Z,16.00
2023-02-21T13:50:46.876Z,15.90
2023-02-21T13:52:49.518Z,15.80
2023-02-21T13:54:24.715Z,15.80
2023-02-21T13:56:18.443Z,15.90
2023-02-21T13:57:54.255Z,15.90
2023-02-21T13:59:36.475Z,16.00
2023-02-21T14:01:48.016Z,16.00
2023-02-21T14:03:33.191Z,16.00
2023-02-21T14:05:10.596Z,16.10
2023-02-21T14:06:56.940Z,16.20
2023-02-21T14:08:32.149Z,16.20
2023-02-21T14:10:05.805Z,16.20
2023-02-21T14:11:44.007Z,16.20
2023-02-21T14:13:24.827Z,16.10
2023-02-21T14:15:07.154Z,16.10
2023-02-21T14:17:00.353Z,16.10
2023-02-21T14:18:46.713Z,16.10
2023-02-21T14:20:24.459Z,16.00
2023-02-21T14:22:03.344Z,16.00
2023-02-21T14:23:42.870Z,16.00
2023-02-21T14:25:20.379Z,16.00
2023-02-21T14:26:56.851Z,15.90
2023-02-21T14:29:00.357Z,15.90
2023-02-21T14:30:34.850Z,15.90
2023-02-21T14:32:35.733Z,16.00
2023-02-21T14:34:12.640Z,16.10
2023-02-21T14:35:52.892Z,16.20
2023-02-21T14:37:31.471Z,16.30
2023-02-21T14:39:04.997Z,16.50
2023-02-21T14:40:48.961Z,16.50
2023-02-21T14:42:46.259Z,16.50
2023-02-21T14:44:27.727Z,16.50
2023-02-21T14:46:14.480Z,16.50
2023-02-21T14:48:16.127Z,16.40
2023-02-21T14:50:04.176Z,16.40
2023-02-21T14:52:10.537Z,16.30
2023-02-21T14:54:22.237Z,16.10
2023-02-21T14:56:37.820Z,16.00
2023-02-21T14:58:44.361Z,15.80
2023-02-21T15:00:26.844Z,15.50
2023-02-21T15:02:12.042Z,15.50
2023-02-21T15:03:53.106Z,15.50
2023-02-21T15:05:29.734Z,15.50
2023-02-21T15:07:13.220Z,15.70
2023-02-21T15:08:48.207Z,15.70
2023-02-21T15:10:24.740Z,15.80
2023-02-21T15:11:57.859Z,15.80
2023-02-21T15:13:32.978Z,15.80
2023-02-21T15:15:07.942Z,15.80
2023-02-21T15:16:44.590Z,15.80
2023-02-21T15:18:26.971Z,15.80
2023-02-21T15:20:06.459Z,15.80
2023-02-21T15:21:39.455Z,15.80
2023-02-21T15:23:16.278Z,15.70
2023-02-21T15:27:15.189Z,15.70
2023-02-21T15:29:03.661Z,15.60
2023-02-21T15:30:42.177Z,15.40
2023-02-21T15:32:15.723Z,15.20
2023-02-21T15:33:53.147Z,15.10
2023-02-21T15:35:30.969Z,15.00
2023-02-21T15:37:11.039Z,14.90
2023-02-21T15:38:50.977Z,14.80
2023-02-21T15:40:26.363Z,14.80
2023-02-21T15:42:00.128Z,14.70
2023-02-21T15:43:40.089Z,14.60
2023-02-21T15:45:20.198Z,14.50
2023-02-21T15:46:57.467Z,14.40
2023-02-21T15:48:30.682Z,14.40
2023-02-21T15:50:08.120Z,14.40
2023-02-21T15:51:41.068Z,14.30
2023-02-21T15:53:17.373Z,14.40
2023-02-21T15:54:51.640Z,14.30
2023-02-21T15:56:28.496Z,14.30
2023-02-21T15:58:03.997Z,14.00
2023-02-21T15:59:37.051Z,14.30
2023-02-21T16:01:11.918Z,14.30
2023-02-21T16:02:45.060Z,14.30
2023-02-21T16:04:20.932Z,14.30
2023-02-21T16:05:55.510Z,14.20
2023-02-21T16:07:34.918Z,14.20
2023-02-21T16:09:24.204Z,14.20
2023-02-21T16:11:04.385Z,14.20
2023-02-21T16:12:42.225Z,14.10
2023-02-21T16:14:19.401Z,14.10
2023-02-21T16:15:52.443Z,14.10
2023-02-21T16:17:29.964Z,14.10
2023-02-21T16:19:03.219Z,14.10
2023-02-21T16:20:38.679Z,14.10
2023-02-21T16:22:13.846Z,14.00
2023-02-21T16:23:46.753Z,14.00
2023-02-21T16:25:23.076Z,14.00
2023-02-21T16:27:07.152Z,13.90
2023-02-21T16:28:41.588Z,13.80
2023-02-21T16:30:17.547Z,13.70
2023-02-21T16:31:50.968Z,13.70
2023-02-21T16:33:24.017Z,13.60
2023-02-21T16:34:56.993Z,13.40
2023-02-21T16:36:32.075Z,13.40
2023-02-21T16:38:06.431Z,13.20
2023-02-21T16:39:40.664Z,13.10
2023-02-21T16:41:16.085Z,13.00
2023-02-21T16:42:51.029Z,12.90
2023-02-21T16:44:24.171Z,12.80
2023-02-21T16:46:00.027Z,12.80
2023-02-21T16:47:32.950Z,12.70
2023-02-21T16:49:05.877Z,12.60
2023-02-21T16:50:40.642Z,12.60
2023-02-21T16:52:16.246Z,12.60
2023-02-21T16:53:49.837Z,12.50
2023-02-21T16:55:25.955Z,12.50
2023-02-21T16:56:59.172Z,12.40
2023-02-21T16:58:35.590Z,12.50
2023-02-21T17:00:09.662Z,12.30
2023-02-21T17:01:43.501Z,12.30
2023-02-21T17:03:16.476Z,12.30
2023-02-21T17:04:49.421Z,12.20
2023-02-21T17:06:24.496Z,12.20
2023-02-21T17:07:58.534Z,12.10
2023-02-21T17:09:33.391Z,12.00
2023-02-21T17:11:06.395Z,12.00
2023-02-21T17:12:39.331Z,11.90
2023-02-21T17:14:13.574Z,11.80
2023-02-21T17:15:47.651Z,11.70
2023-02-21T17:17:20.670Z,11.60
2023-02-21T17:18:53.609Z,11.70
2023-02-21T17:20:27.160Z,11.80
2023-02-21T17:22:00.326Z,11.80
2023-02-21T17:23:33.279Z,11.80
2023-02-21T17:25:07.319Z,11.90
2023-02-21T17:26:40.291Z,11.90
2023-02-21T17:28:13.237Z,11.90
2023-02-21T17:29:48.206Z,11.90
2023-02-21T17:31:21.168Z,11.90
2023-02-21T17:32:54.408Z,11.80
2023-02-21T17:34:27.319Z,11.80
2023-02-21T17:36:00.434Z,11.80
2023-02-21T17:37:33.321Z,11.70
2023-02-21T17:39:06.824Z,11.70
2023-02-21T17:40:39.817Z,11.60
2023-02-21T17:42:12.762Z,11.60
2023-02-21T17:43:45.772Z,11.50
2023-02-21T17:45:21.985Z,11.40
2023-02-21T17:46:57.208Z,11.40
2023-02-21T17:48:30.150Z,11.40
2023-02-21T17:50:03.847Z,11.40
2023-02-21T17:51:36.890Z,11.30
2023-02-21T17:53:09.836Z,11.30
2023-02-21T17:54:42.916Z,11.30
2023-02-21T17:56:19.059Z,11.30
2023-02-21T17:57:52.020Z,11.30
2023-02-21T17:59:24.966Z,11.30
2023-02-21T18:01:00.149Z,11.30
2023-02-21T18:02:33.056Z,11.20
2023-02-21T18:04:06.241Z,11.20
2023-02-21T18:05:39.267Z,11.20
2023-02-21T18:07:12.181Z,11.00
2023-02-21T18:08:46.994Z,11.10
2023-02-21T18:10:21.816Z,11.00
2023-02-21T18:11:56.373Z,11.00
2023-02-21T18:13:29.266Z,10.80
2023-02-21T18:15:04.128Z,11.00
2023-02-21T18:16:38.423Z,10.90
2023-02-21T18:18:11.349Z,10.80
2023-02-21T18:19:44.554Z,10.90
2023-02-21T18:21:17.927Z,10.80
2023-02-21T18:22:50.954Z,10.70
2023-02-21T18:24:23.985Z,10.70
2023-02-21T18:25:57.300Z,10.70
2023-02-21T18:27:30.066Z,10.60
2023-02-21T18:29:02.942Z,10.50
2023-02-21T18:30:36.003Z,10.50
2023-02-21T18:32:10.297Z,10.40
2023-02-21T18:33:43.282Z,10.30
2023-02-21T18:35:17.602Z,10.30
2023-02-21T18:36:51.511Z,10.20
2023-02-21T18:38:25.169Z,10.20
2023-02-21T18:39:58.116Z,10.10
2023-02-21T18:41:35.272Z,10.20
2023-02-21T18:43:08.154Z,10.10
2023-02-21T18:44:41.008Z,10.10
2023-02-21T18:46:16.746Z,10.10
2023-02-21T18:47:51.035Z,10.00
2023-02-21T18:49:24.088Z,10.00
2023-02-21T18:50:57.713Z,9.90
2023-02-21T18:52:30.623Z,9.90
2023-02-21T18:54:04.188Z,9.90
2023-02-21T18:55:37.475Z,9.80
2023-02-21T18:57:10.325Z,9.90
2023-02-21T18:58:43.213Z,9.80
2023-02-21T19:00:18.699Z,9.80
2023-02-21T19:01:52.463Z,9.70
2023-02-21T19:03:26.694Z,9.60
2023-02-21T19:04:59.560Z,9.60
2023-02-21T19:06:33.458Z,9.50
2023-02-21T19:08:06.841Z,9.60
2023-02-21T19:09:39.926Z,9.60
2023-02-21T19:11:13.962Z,9.50
2023-02-21T19:12:47.082Z,9.50
2023-02-21T19:14:20.052Z,9.50
2023-02-21T19:15:52.936Z,9.40
2023-02-21T19:17:25.853Z,9.40
2023-02-21T19:19:03.206Z,9.40
2023-02-21T19:20:36.770Z,9.30
2023-02-21T19:22:09.727Z,9.30
2023-02-21T19:23:44.486Z,9.30
2023-02-21T19:25:17.942Z,9.30
2023-02-21T19:26:51.368Z,9.30
2023-02-21T19:28:28.655Z,9.30
2023-02-21T19:30:01.664Z,9.30
2023-02-21T19:31:34.655Z,9.20
2023-02-21T19:33:08.914Z,9.20
2023-02-21T19:34:44.392Z,9.30
2023-02-21T19:36:17.568Z,9.20
2023-02-21T19:37:50.473Z,9.20
2023-02-21T19:39:23.377Z,9.60
2023-02-21T19:40:56.273Z,9.20
2023-02-21T19:42:29.153Z,9.20
2023-02-21T19:44:01.999Z,9.10
2023-02-21T19:45:35.147Z,9.10
2023-02-21T19:47:08.045Z,9.20
2023-02-21T19:48:40.899Z,9.00
2023-02-21T19:50:15.457Z,9.00
2023-02-21T19:51:50.349Z,9.00
2023-02-21T19:53:23.767Z,8.90
2023-02-21T19:54:56.454Z,8.90
2023-02-21T19:56:29.707Z,8.90
2023-02-21T19:58:06.997Z,8.90
2023-02-21T19:59:39.901Z,9.20
2023-02-21T20:01:13.075Z,8.80
2023-02-21T20:02:46.410Z,8.80
2023-02-21T20:04:19.529Z,8.70
2023-02-21T20:05:55.156Z,8.70
2023-02-21T20:07:28.074Z,8.60
2023-02-21T20:09:00.946Z,8.60
2023-02-21T20:10:33.934Z,8.60
2023-02-21T20:12:07.537Z,8.60
2023-02-21T20:13:42.017Z,8.50
2023-02-21T20:15:14.951Z,8.60
2023-02-21T20:16:48.032Z,8.50
2023-02-21T20:18:20.991Z,8.50
2023-02-21T20:19:53.969Z,8.40
2023-02-21T20:21:30.925Z,8.40
2023-02-21T20:23:04.313Z,8.40
2023-02-21T20:24:37.055Z,8.30
2023-02-21T20:26:12.828Z,8.30
2023-02-21T20:27:45.652Z,8.50
2023-02-21T20:29:18.860Z,8.30
2023-02-21T20:30:51.919Z,8.20
2023-02-21T20:32:25.497Z,8.10
2023-02-21T20:34:02.613Z,8.10
2023-02-21T20:35:35.525Z,8.00
2023-02-21T20:37:10.988Z,8.00
2023-02-21T20:38:43.929Z,8.00
2023-02-21T20:40:18.687Z,7.90
2023-02-21T20:41:51.582Z,8.00
2023-02-21T20:43:25.449Z,7.90
2023-02-21T20:44:58.439Z,7.90
2023-02-21T20:46:33.952Z,7.80
2023-02-21T20:48:08.889Z,7.80
2023-02-21T20:49:44.380Z,7.80
2023-02-21T20:51:17.571Z,7.70
2023-02-21T20:52:52.107Z,7.70
2023-02-21T20:54:24.833Z,7.60
2023-02-21T20:55:58.284Z,7.60
2023-02-21T20:57:31.520Z,7.50
2023-02-21T20:59:05.742Z,7.50
2023-02-21T21:00:38.814Z,7.40
2023-02-21T21:02:11.735Z,7.40
2023-02-21T21:03:44.596Z,7.40
2023-02-21T21:05:17.602Z,7.30
2023-02-21T21:06:50.903Z,7.20
2023-02-21T21:08:25.154Z,7.20
2023-02-21T21:09:58.030Z,7.40
2023-02-21T21:11:31.796Z,7.20
2023-02-21T21:13:05.333Z,6.70
2023-02-21T21:14:41.543Z,7.10
2023-02-21T21:16:16.117Z,7.10
2023-02-21T21:17:50.328Z,7.10
2023-02-21T21:19:25.721Z,7.10
2023-02-21T21:20:58.910Z,6.90
2023-02-21T21:22:31.840Z,7.10
2023-02-21T21:24:07.625Z,5.20
2023-02-21T21:25:40.565Z,7.10
2023-02-21T21:27:15.281Z,7.10
2023-02-21T21:28:48.541Z,7.10
2023-02-21T21:30:23.313Z,7.10